KYNG/YNG METAR and TAF weather

Enter ICAO airport designator
Station Type Date Time Source
KYNG METAR 2021/03/07 07:51 UTC NOAA

KYNG 070751Z 13003KT 10SM FEW065 M07/M11 A3025 RMK AO2 SLP260 T10671106


Station Type Date Time Source
KYNG Decoded METAR 2021/03/07 07:51 UTC NOAA

YOUNGSTOWN-WARREN REG AIRPRT, OH, United States (KYNG) 41-15N 080-40W 360M
Mar 07, 2021 - 02:51 AM EST / 2021.03.07 0751 UTC
Wind: from the SE (130 degrees) at 3 MPH (3 KT):0
Visibility: 10 mile(s):0
Sky conditions: mostly clear
Temperature: 19.9 F (-6.7 C)
Dew Point: 12.9 F (-10.6 C)
Relative Humidity: 73%
Pressure (altimeter): 30.25 in. Hg (1024 hPa)
ob: KYNG 070751Z 13003KT 10SM FEW065 M07/M11 A3025 RMK AO2 SLP260 T10671106
cycle: 8

Station Type Date Time Source
KYNG TAF 2021/03/07 06:42 UTC NOAA

TAF KYNG 070539Z 0706/0806 VRB04KT P6SM SCT060
FM071600 31007KT P6SM SCT050
FM080000 16005KT P6SM SCT200

Example: see airport list